sensor_id;sensor_type;location;lat;lon;timestamp;temperature;humidity
68813;DHT22;55808;48.112;11.552;2022-11-18T00:00:31;7.10;99.90
68813;DHT22;55808;48.112;11.552;2022-11-18T00:02:56;7.10;99.90
68813;DHT22;55808;48.112;11.552;2022-11-18T00:05:22;7.00;99.90
68813;DHT22;55808;48.112;11.552;2022-11-18T00:07:48;7.00;99.90
68813;DHT22;55808;48.112;11.552;2022-11-18T00:10:13;7.10;99.90
68813;DHT22;55808;48.112;11.552;2022-11-18T00:12:39;7.00;99.90
68813;DHT22;55808;48.112;11.552;2022-11-18T00:15:23;7.00;99.90
68813;DHT22;55808;48.112;11.552;2022-11-18T00:17:49;7.00;99.90
68813;DHT22;55808;48.112;11.552;2022-11-18T00:20:16;7.00;99.90
68813;DHT22;55808;48.112;11.552;2022-11-18T00:22:42;7.00;99.90
68813;DHT22;55808;48.112;11.552;2022-11-18T00:25:07;7.00;99.90
68813;DHT22;55808;48.112;11.552;2022-11-18T00:27:33;6.90;99.90
68813;DHT22;55808;48.112;11.552;2022-11-18T00:29:59;6.90;99.90
68813;DHT22;55808;48.112;11.552;2022-11-18T00:32:24;6.90;99.90
68813;DHT22;55808;48.112;11.552;2022-11-18T00:34:50;6.90;99.90
68813;DHT22;55808;48.112;11.552;2022-11-18T00:37:16;6.90;99.90
68813;DHT22;55808;48.112;11.552;2022-11-18T00:39:41;6.90;99.90
68813;DHT22;55808;48.112;11.552;2022-11-18T00:42:07;6.90;99.90
68813;DHT22;55808;48.112;11.552;2022-11-18T00:44:51;6.90;99.90
68813;DHT22;55808;48.112;11.552;2022-11-18T00:47:17;6.90;99.90
68813;DHT22;55808;48.112;11.552;2022-11-18T00:49:44;6.90;99.90
68813;DHT22;55808;48.112;11.552;2022-11-18T00:52:09;6.80;99.90
68813;DHT22;55808;48.112;11.552;2022-11-18T00:54:35;6.80;99.90
68813;DHT22;55808;48.112;11.552;2022-11-18T00:57:00;6.80;99.90
68813;DHT22;55808;48.112;11.552;2022-11-18T00:59:26;6.80;99.90
68813;DHT22;55808;48.112;11.552;2022-11-18T01:01:52;6.80;99.90
68813;DHT22;55808;48.112;11.552;2022-11-18T01:04:18;6.80;99.90
68813;DHT22;55808;48.112;11.552;2022-11-18T01:06:43;6.80;99.90
68813;DHT22;55808;48.112;11.552;2022-11-18T01:09:09;6.80;99.90
68813;DHT22;55808;48.112;11.552;2022-11-18T01:11:34;6.80;99.90
68813;DHT22;55808;48.112;11.552;2022-11-18T01:14:19;6.80;99.90
68813;DHT22;55808;48.112;11.552;2022-11-18T01:16:44;6.80;99.90
68813;DHT22;55808;48.112;11.552;2022-11-18T01:19:17;6.80;99.90
68813;DHT22;55808;48.112;11.552;2022-11-18T01:21:43;6.80;99.90
68813;DHT22;55808;48.112;11.552;2022-11-18T01:24:08;6.80;99.90
68813;DHT22;55808;48.112;11.552;2022-11-18T01:26:34;6.90;99.90
68813;DHT22;55808;48.112;11.552;2022-11-18T01:28:59;6.90;99.90
68813;DHT22;55808;48.112;11.552;2022-11-18T01:31:25;6.90;99.90
68813;DHT22;55808;48.112;11.552;2022-11-18T01:33:51;6.90;99.90
68813;DHT22;55808;48.112;11.552;2022-11-18T01:36:19;6.90;99.90
68813;DHT22;55808;48.112;11.552;2022-11-18T01:38:45;6.90;99.90
68813;DHT22;55808;48.112;11.552;2022-11-18T01:41:11;6.90;99.90
68813;DHT22;55808;48.112;11.552;2022-11-18T01:44:01;6.90;99.90
68813;DHT22;55808;48.112;11.552;2022-11-18T01:46:29;6.90;99.90
68813;DHT22;55808;48.112;11.552;2022-11-18T01:49:13;6.90;99.90
68813;DHT22;55808;48.112;11.552;2022-11-18T01:51:52;6.90;99.90
68813;DHT22;55808;48.112;11.552;2022-11-18T01:54:32;6.90;99.90
68813;DHT22;55808;48.112;11.552;2022-11-18T01:57:03;6.80;99.90
68813;DHT22;55808;48.112;11.552;2022-11-18T01:59:34;6.70;99.90
68813;DHT22;55808;48.112;11.552;2022-11-18T02:02:05;6.70;99.90
68813;DHT22;55808;48.112;11.552;2022-11-18T02:04:32;6.60;99.90
68813;DHT22;55808;48.112;11.552;2022-11-18T02:06:58;6.60;99.90
68813;DHT22;55808;48.112;11.552;2022-11-18T02:09:24;6.70;99.90
68813;DHT22;55808;48.112;11.552;2022-11-18T02:11:50;6.70;99.90
68813;DHT22;55808;48.112;11.552;2022-11-18T02:14:31;6.70;99.90
68813;DHT22;55808;48.112;11.552;2022-11-18T02:17:13;6.70;99.90
68813;DHT22;55808;48.112;11.552;2022-11-18T02:30:32;6.80;99.90
68813;DHT22;55808;48.112;11.552;2022-11-18T02:33:16;6.80;99.90
68813;DHT22;55808;48.112;11.552;2022-11-18T02:35:46;6.90;99.90
68813;DHT22;55808;48.112;11.552;2022-11-18T02:38:30;6.90;99.90
68813;DHT22;55808;48.112;11.552;2022-11-18T02:41:03;6.90;99.90
68813;DHT22;55808;48.112;11.552;2022-11-18T02:43:40;6.90;99.90
68813;DHT22;55808;48.112;11.552;2022-11-18T02:46:10;7.00;99.90
68813;DHT22;55808;48.112;11.552;2022-11-18T02:48:40;7.00;99.90
68813;DHT22;55808;48.112;11.552;2022-11-18T02:51:09;6.90;99.90
68813;DHT22;55808;48.112;11.552;2022-11-18T02:53:37;6.90;99.90
68813;DHT22;55808;48.112;11.552;2022-11-18T02:56:04;6.90;99.90
68813;DHT22;55808;48.112;11.552;2022-11-18T02:58:30;6.80;99.90
68813;DHT22;55808;48.112;11.552;2022-11-18T03:00:58;6.80;99.90
68813;DHT22;55808;48.112;11.552;2022-11-18T03:03:27;6.80;99.90
68813;DHT22;55808;48.112;11.552;2022-11-18T03:09:09;6.70;99.90
68813;DHT22;55808;48.112;11.552;2022-11-18T03:22:26;6.70;99.90
68813;DHT22;55808;48.112;11.552;2022-11-18T03:25:06;6.70;99.90
68813;DHT22;55808;48.112;11.552;2022-11-18T03:30:43;6.70;99.90
68813;DHT22;55808;48.112;11.552;2022-11-18T03:33:16;6.60;99.90
68813;DHT22;55808;48.112;11.552;2022-11-18T03:35:46;6.60;99.90
68813;DHT22;55808;48.112;11.552;2022-11-18T03:38:16;6.70;99.90
68813;DHT22;55808;48.112;11.552;2022-11-18T03:40:47;6.60;99.90
68813;DHT22;55808;48.112;11.552;2022-11-18T03:43:18;6.70;99.90
68813;DHT22;55808;48.112;11.552;2022-11-18T03:45:48;6.70;99.90
68813;DHT22;55808;48.112;11.552;2022-11-18T03:48:18;6.70;99.90
68813;DHT22;55808;48.112;11.552;2022-11-18T03:51:05;6.70;99.90
68813;DHT22;55808;48.112;11.552;2022-11-18T03:53:34;6.70;99.90
68813;DHT22;55808;48.112;11.552;2022-11-18T03:56:08;6.60;99.90
68813;DHT22;55808;48.112;11.552;2022-11-18T03:58:41;6.60;99.90
68813;DHT22;55808;48.112;11.552;2022-11-18T04:01:16;6.60;99.90
68813;DHT22;55808;48.112;11.552;2022-11-18T04:03:43;6.50;99.90
68813;DHT22;55808;48.112;11.552;2022-11-18T04:06:23;6.50;99.90
68813;DHT22;55808;48.112;11.552;2022-11-18T04:08:54;6.50;99.90
68813;DHT22;55808;48.112;11.552;2022-11-18T04:11:25;6.50;99.90
68813;DHT22;55808;48.112;11.552;2022-11-18T04:14:13;6.50;99.90
68813;DHT22;55808;48.112;11.552;2022-11-18T04:16:44;6.50;99.90
68813;DHT22;55808;48.112;11.552;2022-11-18T04:19:09;6.50;99.90
68813;DHT22;55808;48.112;11.552;2022-11-18T04:21:35;6.50;99.90
68813;DHT22;55808;48.112;11.552;2022-11-18T04:24:02;6.50;99.90
68813;DHT22;55808;48.112;11.552;2022-11-18T04:26:27;6.50;99.90
68813;DHT22;55808;48.112;11.552;2022-11-18T04:28:53;6.50;99.90
68813;DHT22;55808;48.112;11.552;2022-11-18T04:31:19;6.40;99.90
68813;DHT22;55808;48.112;11.552;2022-11-18T04:33:44;6.40;99.90
68813;DHT22;55808;48.112;11.552;2022-11-18T04:36:10;6.50;99.90
68813;DHT22;55808;48.112;11.552;2022-11-18T04:38:35;6.50;99.90
68813;DHT22;55808;48.112;11.552;2022-11-18T04:41:01;6.50;99.90
68813;DHT22;55808;48.112;11.552;2022-11-18T04:43:26;6.50;99.90
68813;DHT22;55808;48.112;11.552;2022-11-18T04:45:52;6.50;99.90
68813;DHT22;55808;48.112;11.552;2022-11-18T04:48:18;6.60;99.90
68813;DHT22;55808;48.112;11.552;2022-11-18T04:50:43;6.60;99.90
68813;DHT22;55808;48.112;11.552;2022-11-18T04:53:09;6.60;99.90
68813;DHT22;55808;48.112;11.552;2022-11-18T04:55:35;6.50;99.90
68813;DHT22;55808;48.112;11.552;2022-11-18T04:58:01;6.50;99.90
68813;DHT22;55808;48.112;11.552;2022-11-18T05:00:27;6.50;99.90
68813;DHT22;55808;48.112;11.552;2022-11-18T05:02:52;6.50;99.90
68813;DHT22;55808;48.112;11.552;2022-11-18T05:05:18;6.50;99.90
68813;DHT22;55808;48.112;11.552;2022-11-18T05:07:44;6.50;99.90
68813;DHT22;55808;48.112;11.552;2022-11-18T05:10:09;6.50;99.90
68813;DHT22;55808;48.112;11.552;2022-11-18T05:12:35;6.50;99.90
68813;DHT22;55808;48.112;11.552;2022-11-18T05:15:14;6.50;99.90
68813;DHT22;55808;48.112;11.552;2022-11-18T05:17:40;6.40;99.90
68813;DHT22;55808;48.112;11.552;2022-11-18T05:20:06;6.50;99.90
68813;DHT22;55808;48.112;11.552;2022-11-18T05:22:32;6.40;99.90
68813;DHT22;55808;48.112;11.552;2022-11-18T05:24:58;6.40;99.90
68813;DHT22;55808;48.112;11.552;2022-11-18T05:27:26;6.40;99.90
68813;DHT22;55808;48.112;11.552;2022-11-18T05:29:52;6.40;99.90
68813;DHT22;55808;48.112;11.552;2022-11-18T05:32:17;6.40;99.90
68813;DHT22;55808;48.112;11.552;2022-11-18T05:34:43;6.40;99.90
68813;DHT22;55808;48.112;11.552;2022-11-18T05:37:09;6.30;99.90
68813;DHT22;55808;48.112;11.552;2022-11-18T05:39:35;6.30;99.90
68813;DHT22;55808;48.112;11.552;2022-11-18T05:42:01;6.30;99.90
68813;DHT22;55808;48.112;11.552;2022-11-18T05:44:45;6.30;99.90
68813;DHT22;55808;48.112;11.552;2022-11-18T05:47:12;6.30;99.90
68813;DHT22;55808;48.112;11.552;2022-11-18T05:49:38;6.20;99.90
68813;DHT22;55808;48.112;11.552;2022-11-18T05:52:04;6.20;99.90
68813;DHT22;55808;48.112;11.552;2022-11-18T05:54:30;6.20;99.90
68813;DHT22;55808;48.112;11.552;2022-11-18T05:56:56;6.20;99.90
68813;DHT22;55808;48.112;11.552;2022-11-18T05:59:22;6.10;99.90
68813;DHT22;55808;48.112;11.552;2022-11-18T06:02:01;6.10;99.90
68813;DHT22;55808;48.112;11.552;2022-11-18T06:07:14;6.00;99.90
68813;DHT22;55808;48.112;11.552;2022-11-18T06:09:44;6.00;99.90
68813;DHT22;55808;48.112;11.552;2022-11-18T06:12:13;6.00;99.90
68813;DHT22;55808;48.112;11.552;2022-11-18T06:14:54;6.00;99.90
68813;DHT22;55808;48.112;11.552;2022-11-18T06:17:28;6.00;99.90
68813;DHT22;55808;48.112;11.552;2022-11-18T06:19:56;6.00;99.90
68813;DHT22;55808;48.112;11.552;2022-11-18T06:22:22;6.00;99.90
68813;DHT22;55808;48.112;11.552;2022-11-18T06:24:49;6.00;99.90
68813;DHT22;55808;48.112;11.552;2022-11-18T06:27:15;6.00;99.90
68813;DHT22;55808;48.112;11.552;2022-11-18T06:29:41;6.00;99.90
68813;DHT22;55808;48.112;11.552;2022-11-18T06:32:06;6.10;99.90
68813;DHT22;55808;48.112;11.552;2022-11-18T06:34:32;6.20;99.90
68813;DHT22;55808;48.112;11.552;2022-11-18T06:36:58;6.10;99.90
68813;DHT22;55808;48.112;11.552;2022-11-18T06:39:23;6.20;99.90
68813;DHT22;55808;48.112;11.552;2022-11-18T06:41:52;6.20;99.90
68813;DHT22;55808;48.112;11.552;2022-11-18T06:44:18;6.20;99.90
68813;DHT22;55808;48.112;11.552;2022-11-18T06:46:44;6.20;99.90
68813;DHT22;55808;48.112;11.552;2022-11-18T06:49:22;6.20;99.90
68813;DHT22;55808;48.112;11.552;2022-11-18T06:51:48;6.20;99.90
68813;DHT22;55808;48.112;11.552;2022-11-18T06:54:14;6.20;99.90
68813;DHT22;55808;48.112;11.552;2022-11-18T06:56:39;6.10;99.90
68813;DHT22;55808;48.112;11.552;2022-11-18T06:59:05;6.10;99.90
68813;DHT22;55808;48.112;11.552;2022-11-18T07:01:34;6.20;99.90
68813;DHT22;55808;48.112;11.552;2022-11-18T07:04:00;6.20;99.90
68813;DHT22;55808;48.112;11.552;2022-11-18T07:06:28;6.20;99.90
68813;DHT22;55808;48.112;11.552;2022-11-18T07:08:54;6.20;99.90
68813;DHT22;55808;48.112;11.552;2022-11-18T07:11:22;6.30;99.90
68813;DHT22;55808;48.112;11.552;2022-11-18T07:13:49;6.60;99.90
68813;DHT22;55808;48.112;11.552;2022-11-18T07:16:17;6.50;99.90
68813;DHT22;55808;48.112;11.552;2022-11-18T07:18:45;6.50;99.90
68813;DHT22;55808;48.112;11.552;2022-11-18T07:21:16;6.60;99.90
68813;DHT22;55808;48.112;11.552;2022-11-18T07:23:42;6.40;99.90
68813;DHT22;55808;48.112;11.552;2022-11-18T07:26:08;6.50;99.90
68813;DHT22;55808;48.112;11.552;2022-11-18T07:28:35;6.50;99.90
68813;DHT22;55808;48.112;11.552;2022-11-18T07:31:08;6.50;99.90
68813;DHT22;55808;48.112;11.552;2022-11-18T07:33:35;6.60;99.90
68813;DHT22;55808;48.112;11.552;2022-11-18T07:36:08;6.40;99.90
68813;DHT22;55808;48.112;11.552;2022-11-18T07:38:34;6.50;99.90
68813;DHT22;55808;48.112;11.552;2022-11-18T07:41:07;6.60;99.90
68813;DHT22;55808;48.112;11.552;2022-11-18T07:43:34;6.60;99.90
68813;DHT22;55808;48.112;11.552;2022-11-18T07:46:22;6.60;99.90
68813;DHT22;55808;48.112;11.552;2022-11-18T07:48:50;6.60;99.90
68813;DHT22;55808;48.112;11.552;2022-11-18T07:51:19;6.70;99.90
68813;DHT22;55808;48.112;11.552;2022-11-18T07:53:47;6.60;99.90
68813;DHT22;55808;48.112;11.552;2022-11-18T07:56:13;6.70;99.90
68813;DHT22;55808;48.112;11.552;2022-11-18T07:58:40;6.60;99.90
68813;DHT22;55808;48.112;11.552;2022-11-18T08:01:07;6.60;99.90
68813;DHT22;55808;48.112;11.552;2022-11-18T08:03:33;6.60;99.90
68813;DHT22;55808;48.112;11.552;2022-11-18T08:06:00;6.60;99.90
68813;DHT22;55808;48.112;11.552;2022-11-18T08:08:26;6.60;99.90
68813;DHT22;55808;48.112;11.552;2022-11-18T08:10:55;6.60;99.90
68813;DHT22;55808;48.112;11.552;2022-11-18T08:13:21;6.60;99.90
68813;DHT22;55808;48.112;11.552;2022-11-18T08:15:47;6.60;99.90
68813;DHT22;55808;48.112;11.552;2022-11-18T08:18:12;6.60;99.90
68813;DHT22;55808;48.112;11.552;2022-11-18T08:20:38;6.60;99.90
68813;DHT22;55808;48.112;11.552;2022-11-18T08:23:04;6.60;99.90
68813;DHT22;55808;48.112;11.552;2022-11-18T08:25:29;6.70;99.90
68813;DHT22;55808;48.112;11.552;2022-11-18T08:27:55;6.60;99.90
68813;DHT22;55808;48.112;11.552;2022-11-18T08:30:22;6.60;99.90
68813;DHT22;55808;48.112;11.552;2022-11-18T08:32:47;6.60;99.90
68813;DHT22;55808;48.112;11.552;2022-11-18T08:35:13;6.60;99.90
68813;DHT22;55808;48.112;11.552;2022-11-18T08:37:38;6.50;99.90
68813;DHT22;55808;48.112;11.552;2022-11-18T08:40:04;6.50;99.90
68813;DHT22;55808;48.112;11.552;2022-11-18T08:42:30;6.50;99.90
68813;DHT22;55808;48.112;11.552;2022-11-18T08:44:57;6.50;99.90
68813;DHT22;55808;48.112;11.552;2022-11-18T08:47:22;6.50;99.90
68813;DHT22;55808;48.112;11.552;2022-11-18T08:49:48;6.50;99.90
68813;DHT22;55808;48.112;11.552;2022-11-18T08:52:14;6.50;99.90
68813;DHT22;55808;48.112;11.552;2022-11-18T08:54:40;6.50;99.90
68813;DHT22;55808;48.112;11.552;2022-11-18T08:57:05;6.50;99.90
68813;DHT22;55808;48.112;11.552;2022-11-18T08:59:31;6.50;99.90
68813;DHT22;55808;48.112;11.552;2022-11-18T09:01:57;6.40;99.90
68813;DHT22;55808;48.112;11.552;2022-11-18T09:04:22;6.40;99.90
68813;DHT22;55808;48.112;11.552;2022-11-18T09:06:48;6.40;99.90
68813;DHT22;55808;48.112;11.552;2022-11-18T09:09:14;6.40;99.90
68813;DHT22;55808;48.112;11.552;2022-11-18T09:11:41;6.40;99.90
68813;DHT22;55808;48.112;11.552;2022-11-18T09:14:11;6.40;99.90
68813;DHT22;55808;48.112;11.552;2022-11-18T09:16:37;6.50;99.90
68813;DHT22;55808;48.112;11.552;2022-11-18T09:19:03;6.40;99.90
68813;DHT22;55808;48.112;11.552;2022-11-18T09:21:29;6.40;99.90
68813;DHT22;55808;48.112;11.552;2022-11-18T09:23:54;6.50;99.90
68813;DHT22;55808;48.112;11.552;2022-11-18T09:26:21;6.40;99.90
68813;DHT22;55808;48.112;11.552;2022-11-18T09:28:51;6.40;99.90
68813;DHT22;55808;48.112;11.552;2022-11-18T09:31:17;6.40;99.90
68813;DHT22;55808;48.112;11.552;2022-11-18T09:33:43;6.40;99.90
68813;DHT22;55808;48.112;11.552;2022-11-18T09:36:19;6.30;99.90
68813;DHT22;55808;48.112;11.552;2022-11-18T09:38:45;6.30;99.90
68813;DHT22;55808;48.112;11.552;2022-11-18T09:49:42;6.40;99.90
68813;DHT22;55808;48.112;11.552;2022-11-18T09:52:18;6.30;99.90
68813;DHT22;55808;48.112;11.552;2022-11-18T09:54:44;6.30;99.90
68813;DHT22;55808;48.112;11.552;2022-11-18T09:57:18;6.30;99.90
68813;DHT22;55808;48.112;11.552;2022-11-18T09:59:44;6.10;99.90
68813;DHT22;55808;48.112;11.552;2022-11-18T10:04:56;6.10;99.90
68813;DHT22;55808;48.112;11.552;2022-11-18T10:07:34;6.00;99.90
68813;DHT22;55808;48.112;11.552;2022-11-18T10:10:02;6.00;99.90
68813;DHT22;55808;48.112;11.552;2022-11-18T10:12:49;6.00;99.90
68813;DHT22;55808;48.112;11.552;2022-11-18T10:15:33;5.90;99.90
68813;DHT22;55808;48.112;11.552;2022-11-18T10:21:06;6.00;99.90
68813;DHT22;55808;48.112;11.552;2022-11-18T10:23:51;5.90;99.90
68813;DHT22;55808;48.112;11.552;2022-11-18T10:26:36;6.00;99.90
68813;DHT22;55808;48.112;11.552;2022-11-18T10:29:03;6.00;99.90
68813;DHT22;55808;48.112;11.552;2022-11-18T10:31:32;6.10;99.90
68813;DHT22;55808;48.112;11.552;2022-11-18T10:34:00;6.00;99.90
68813;DHT22;55808;48.112;11.552;2022-11-18T10:36:28;6.00;99.90
68813;DHT22;55808;48.112;11.552;2022-11-18T10:39:15;6.00;99.90
68813;DHT22;55808;48.112;11.552;2022-11-18T10:41:50;6.00;99.90
68813;DHT22;55808;48.112;11.552;2022-11-18T10:47:20;5.90;99.90
68813;DHT22;55808;48.112;11.552;2022-11-18T10:49:47;5.90;99.90
68813;DHT22;55808;48.112;11.552;2022-11-18T10:52:13;5.90;99.90
68813;DHT22;55808;48.112;11.552;2022-11-18T10:54:42;6.00;99.90
68813;DHT22;55808;48.112;11.552;2022-11-18T10:57:24;6.00;99.90
68813;DHT22;55808;48.112;11.552;2022-11-18T10:59:53;6.00;99.90
68813;DHT22;55808;48.112;11.552;2022-11-18T11:02:30;5.90;99.90
68813;DHT22;55808;48.112;11.552;2022-11-18T11:05:16;5.80;99.90
68813;DHT22;55808;48.112;11.552;2022-11-18T11:07:43;5.80;99.90
68813;DHT22;55808;48.112;11.552;2022-11-18T11:10:17;6.00;99.90
68813;DHT22;55808;48.112;11.552;2022-11-18T11:12:50;5.90;99.90
68813;DHT22;55808;48.112;11.552;2022-11-18T11:15:35;5.90;99.90
68813;DHT22;55808;48.112;11.552;2022-11-18T11:18:13;5.90;99.90
68813;DHT22;55808;48.112;11.552;2022-11-18T11:21:00;6.00;99.90
68813;DHT22;55808;48.112;11.552;2022-11-18T11:23:26;6.10;99.90
68813;DHT22;55808;48.112;11.552;2022-11-18T11:28:52;6.10;99.90
68813;DHT22;55808;48.112;11.552;2022-11-18T11:36:58;6.10;99.90
68813;DHT22;55808;48.112;11.552;2022-11-18T11:42:01;6.20;99.90
68813;DHT22;55808;48.112;11.552;2022-11-18T11:56:32;6.20;99.90
68813;DHT22;55808;48.112;11.552;2022-11-18T12:04:44;6.30;99.90
68813;DHT22;55808;48.112;11.552;2022-11-18T12:07:17;6.30;99.90
68813;DHT22;55808;48.112;11.552;2022-11-18T12:20:50;6.20;99.90
68813;DHT22;55808;48.112;11.552;2022-11-18T12:33:45;6.00;99.90
68813;DHT22;55808;48.112;11.552;2022-11-18T12:36:30;6.00;99.90
68813;DHT22;55808;48.112;11.552;2022-11-18T12:42:01;6.00;99.90
68813;DHT22;55808;48.112;11.552;2022-11-18T12:44:48;6.00;99.90
68813;DHT22;55808;48.112;11.552;2022-11-18T12:47:16;5.90;99.90
68813;DHT22;55808;48.112;11.552;2022-11-18T12:50:11;5.90;99.90
68813;DHT22;55808;48.112;11.552;2022-11-18T12:55:10;5.90;99.90
68813;DHT22;55808;48.112;11.552;2022-11-18T12:58:02;5.80;99.90
68813;DHT22;55808;48.112;11.552;2022-11-18T13:00:30;5.80;99.90
68813;DHT22;55808;48.112;11.552;2022-11-18T13:02:59;5.80;99.90
68813;DHT22;55808;48.112;11.552;2022-11-18T13:05:34;5.80;99.90
68813;DHT22;55808;48.112;11.552;2022-11-18T13:08:10;5.80;99.90
68813;DHT22;55808;48.112;11.552;2022-11-18T13:15:46;5.60;99.90
68813;DHT22;55808;48.112;11.552;2022-11-18T13:18:32;5.70;99.90
68813;DHT22;55808;48.112;11.552;2022-11-18T13:20:59;5.60;99.90
68813;DHT22;55808;48.112;11.552;2022-11-18T13:23:48;5.70;99.90
68813;DHT22;55808;48.112;11.552;2022-11-18T13:26:28;5.80;99.90
68813;DHT22;55808;48.112;11.552;2022-11-18T13:29:22;5.70;99.90
68813;DHT22;55808;48.112;11.552;2022-11-18T13:34:29;5.70;99.90
68813;DHT22;55808;48.112;11.552;2022-11-18T13:36:57;5.70;99.90
68813;DHT22;55808;48.112;11.552;2022-11-18T13:39:30;5.80;99.90
68813;DHT22;55808;48.112;11.552;2022-11-18T13:42:04;5.90;99.90
68813;DHT22;55808;48.112;11.552;2022-11-18T13:44:35;5.80;99.90
68813;DHT22;55808;48.112;11.552;2022-11-18T13:52:47;5.90;99.90
68813;DHT22;55808;48.112;11.552;2022-11-18T13:57:48;6.10;99.90
68813;DHT22;55808;48.112;11.552;2022-11-18T14:00:27;5.80;99.90
68813;DHT22;55808;48.112;11.552;2022-11-18T14:03:03;5.80;99.90
68813;DHT22;55808;48.112;11.552;2022-11-18T14:05:29;5.90;99.90
68813;DHT22;55808;48.112;11.552;2022-11-18T14:08:39;5.90;99.90
68813;DHT22;55808;48.112;11.552;2022-11-18T14:11:05;5.90;99.90
68813;DHT22;55808;48.112;11.552;2022-11-18T14:13:36;6.00;99.90
68813;DHT22;55808;48.112;11.552;2022-11-18T14:18:49;6.10;99.90
68813;DHT22;55808;48.112;11.552;2022-11-18T14:21:34;6.10;99.90
68813;DHT22;55808;48.112;11.552;2022-11-18T14:24:01;6.90;99.90
68813;DHT22;55808;48.112;11.552;2022-11-18T14:26:32;6.00;99.90
68813;DHT22;55808;48.112;11.552;2022-11-18T14:29:00;6.00;99.90
68813;DHT22;55808;48.112;11.552;2022-11-18T14:31:28;6.00;99.90
68813;DHT22;55808;48.112;11.552;2022-11-18T14:36:40;6.00;99.90
68813;DHT22;55808;48.112;11.552;2022-11-18T14:41:43;6.00;99.90
68813;DHT22;55808;48.112;11.552;2022-11-18T14:44:12;6.70;99.90
68813;DHT22;55808;48.112;11.552;2022-11-18T14:46:38;5.90;99.90
68813;DHT22;55808;48.112;11.552;2022-11-18T14:49:11;5.90;99.90
68813;DHT22;55808;48.112;11.552;2022-11-18T14:51:37;5.90;99.90
68813;DHT22;55808;48.112;11.552;2022-11-18T14:54:02;6.00;99.90
68813;DHT22;55808;48.112;11.552;2022-11-18T14:56:30;5.90;99.90
68813;DHT22;55808;48.112;11.552;2022-11-18T14:58:56;6.00;99.90
68813;DHT22;55808;48.112;11.552;2022-11-18T15:01:22;5.90;99.90
68813;DHT22;55808;48.112;11.552;2022-11-18T15:03:50;5.80;99.90
68813;DHT22;55808;48.112;11.552;2022-11-18T15:06:17;5.80;99.90
68813;DHT22;55808;48.112;11.552;2022-11-18T15:08:45;5.80;99.90
68813;DHT22;55808;48.112;11.552;2022-11-18T15:11:11;5.70;99.90
68813;DHT22;55808;48.112;11.552;2022-11-18T15:13:38;5.70;99.90
68813;DHT22;55808;48.112;11.552;2022-11-18T15:18:40;5.50;99.90
68813;DHT22;55808;48.112;11.552;2022-11-18T15:21:07;5.50;99.90
68813;DHT22;55808;48.112;11.552;2022-11-18T15:23:32;5.50;99.90
68813;DHT22;55808;48.112;11.552;2022-11-18T15:25:58;5.40;99.90
68813;DHT22;55808;48.112;11.552;2022-11-18T15:28:23;5.40;99.90
68813;DHT22;55808;48.112;11.552;2022-11-18T15:30:49;5.40;99.90
68813;DHT22;55808;48.112;11.552;2022-11-18T15:33:15;5.40;99.90
68813;DHT22;55808;48.112;11.552;2022-11-18T15:35:40;5.30;99.90
68813;DHT22;55808;48.112;11.552;2022-11-18T15:38:06;5.30;99.90
68813;DHT22;55808;48.112;11.552;2022-11-18T15:40:31;5.30;99.90
68813;DHT22;55808;48.112;11.552;2022-11-18T15:42:57;5.30;99.90
68813;DHT22;55808;48.112;11.552;2022-11-18T15:45:23;5.20;99.90
68813;DHT22;55808;48.112;11.552;2022-11-18T15:47:50;5.30;99.90
68813;DHT22;55808;48.112;11.552;2022-11-18T15:50:16;5.20;99.90
68813;DHT22;55808;48.112;11.552;2022-11-18T15:52:42;5.30;99.90
68813;DHT22;55808;48.112;11.552;2022-11-18T15:55:08;5.30;99.90
68813;DHT22;55808;48.112;11.552;2022-11-18T15:57:33;5.30;99.90
68813;DHT22;55808;48.112;11.552;2022-11-18T15:59:59;5.30;99.90
68813;DHT22;55808;48.112;11.552;2022-11-18T16:02:25;5.30;99.90
68813;DHT22;55808;48.112;11.552;2022-11-18T16:04:50;5.30;99.90
68813;DHT22;55808;48.112;11.552;2022-11-18T16:07:16;5.30;99.90
68813;DHT22;55808;48.112;11.552;2022-11-18T16:09:41;5.40;99.90
68813;DHT22;55808;48.112;11.552;2022-11-18T16:12:26;5.30;99.90
68813;DHT22;55808;48.112;11.552;2022-11-18T16:15:10;5.30;99.90
68813;DHT22;55808;48.112;11.552;2022-11-18T16:17:55;5.30;99.90
68813;DHT22;55808;48.112;11.552;2022-11-18T16:20:21;5.40;99.90
68813;DHT22;55808;48.112;11.552;2022-11-18T16:22:47;5.50;99.90
68813;DHT22;55808;48.112;11.552;2022-11-18T16:25:13;5.60;99.90
68813;DHT22;55808;48.112;11.552;2022-11-18T16:27:39;5.60;99.90
68813;DHT22;55808;48.112;11.552;2022-11-18T16:30:06;5.60;99.90
68813;DHT22;55808;48.112;11.552;2022-11-18T16:32:53;5.60;99.90
68813;DHT22;55808;48.112;11.552;2022-11-18T16:35:20;5.60;99.90
68813;DHT22;55808;48.112;11.552;2022-11-18T16:37:46;5.60;99.90
68813;DHT22;55808;48.112;11.552;2022-11-18T16:40:11;5.50;99.90
68813;DHT22;55808;48.112;11.552;2022-11-18T16:42:37;5.60;99.90
68813;DHT22;55808;48.112;11.552;2022-11-18T16:45:03;5.60;99.90
68813;DHT22;55808;48.112;11.552;2022-11-18T16:47:29;5.70;99.90
68813;DHT22;55808;48.112;11.552;2022-11-18T16:49:54;5.70;99.90
68813;DHT22;55808;48.112;11.552;2022-11-18T16:52:20;5.70;99.90
68813;DHT22;55808;48.112;11.552;2022-11-18T16:54:45;5.60;99.90
68813;DHT22;55808;48.112;11.552;2022-11-18T16:57:11;5.60;99.90
68813;DHT22;55808;48.112;11.552;2022-11-18T16:59:37;5.60;99.90
68813;DHT22;55808;48.112;11.552;2022-11-18T17:02:08;5.60;99.90
68813;DHT22;55808;48.112;11.552;2022-11-18T17:04:36;5.70;99.90
68813;DHT22;55808;48.112;11.552;2022-11-18T17:07:03;5.70;99.90
68813;DHT22;55808;48.112;11.552;2022-11-18T17:09:29;5.70;99.90
68813;DHT22;55808;48.112;11.552;2022-11-18T17:11:55;5.70;99.90
68813;DHT22;55808;48.112;11.552;2022-11-18T17:14:21;5.60;99.90
68813;DHT22;55808;48.112;11.552;2022-11-18T17:16:48;5.60;99.90
68813;DHT22;55808;48.112;11.552;2022-11-18T17:19:17;5.60;99.90
68813;DHT22;55808;48.112;11.552;2022-11-18T17:21:43;5.60;99.90
68813;DHT22;55808;48.112;11.552;2022-11-18T17:24:11;5.60;99.90
68813;DHT22;55808;48.112;11.552;2022-11-18T17:26:37;5.60;99.90
68813;DHT22;55808;48.112;11.552;2022-11-18T17:29:03;5.50;99.90
68813;DHT22;55808;48.112;11.552;2022-11-18T17:31:29;5.60;99.90
68813;DHT22;55808;48.112;11.552;2022-11-18T17:33:55;5.60;99.90
68813;DHT22;55808;48.112;11.552;2022-11-18T17:36:22;5.60;99.90
68813;DHT22;55808;48.112;11.552;2022-11-18T17:38:50;5.60;99.90
68813;DHT22;55808;48.112;11.552;2022-11-18T17:41:18;5.50;99.90
68813;DHT22;55808;48.112;11.552;2022-11-18T17:44:04;5.60;99.90
68813;DHT22;55808;48.112;11.552;2022-11-18T17:46:30;5.60;99.90
68813;DHT22;55808;48.112;11.552;2022-11-18T17:48:59;5.60;99.90
68813;DHT22;55808;48.112;11.552;2022-11-18T17:51:26;5.70;99.90
68813;DHT22;55808;48.112;11.552;2022-11-18T17:53:53;5.70;99.90